Ditlev Reefer — C6ZP7 — position and weather

sailwx.info

Track history (hours):
 
Tides and Currents Weather Stations Pressure Air Temp Water Temp Dewpoint Dewpoint Depression Visibility Wind Speed Wind Dir Waves Ship Positions

Ditlev Reefer

Last reported at 2018-Jun-17 15:34 UTC. Time now 2018-Jun-22 15:00 UTC.
Position N 36°42' W 029°57'.

Length 164 m; draft 9.1 m.

Type: Ship. MMSI: 311062400.

Date/timePositionNaut miles runAvg speedWind from/ knotsBaromVisibWave heightAir tempDewpointWater temp
2018-Jun-17 15:34N 36°42' W 029°57'1414.8
2018-Jun-17 14:38N 36°49' W 029°43'2515.1
2018-Jun-17 12:57N 37°01' W 029°14'815.2
2018-Jun-17 12:27N 37°04' W 029°06'714.9
2018-Jun-17 11:59N 37°07' W 028°58'715.2
2018-Jun-17 11:30N 37°10' W 028°50'815.2
2018-Jun-17 11:00N 37°14' W 028°41'815.3
2018-Jun-17 10:30N 37°17' W 028°32'715.0
2018-Jun-17 10:00N 37°20' W 028°24'815.9
2018-Jun-17 09:30N 37°24' W 028°15'815.5
2018-Jun-17 09:00N 37°28' W 028°06'714.8
2018-Jun-17 08:30N 37°31' W 027°58'815.4
2018-Jun-17 08:00N 37°34' W 027°49'815.2
2018-Jun-17 07:31N 37°38' W 027°41'815.2
2018-Jun-17 07:00N 37°42' W 027°33'815.6
2018-Jun-17 06:30N 37°44' W 027°23'816.2
2018-Jun-17 06:00N 37°48' W 027°14'815.3
2018-Jun-17 05:30N 37°51' W 027°05'714.8
2018-Jun-17 05:00N 37°54' W 026°57'815.4
2018-Jun-17 04:30N 37°58' W 026°48'715.0
2018-Jun-17 04:00N 38°01' W 026°40'815.1
2018-Jun-17 03:30N 38°04' W 026°31'815.2
2018-Jun-17 03:00N 38°09' W 026°23'714.7
2018-Jun-17 02:30N 38°13' W 026°16'715.0
2018-Jun-17 02:00N 38°18' W 026°08'815.1
2018-Jun-17 01:30N 38°22' W 026°00'815.6
2018-Jun-17 01:01N 38°27' W 025°52'815.5
2018-Jun-17 00:30N 38°31' W 025°44'715.0
2018-Jun-17 00:00N 38°36' W 025°36'714.7
2018-Jun-16 23:31N 38°40' W 025°29'714.6
2018-Jun-16 23:00N 38°44' W 025°21'815.3
2018-Jun-16 22:30N 38°49' W 025°13'  
2018-Jun-13 20:45N 49°17' W 005°25'715.3
2018-Jun-13 20:17N 49°21' W 005°16'415.2
2018-Jun-13 20:00N 49°24' W 005°11'1114.5
2018-Jun-13 19:16N 49°30' W 004°57'913.9
2018-Jun-13 18:36N 49°33' W 004°43'213.6
2018-Jun-13 18:28N 49°33' W 004°41'3513.1
2018-Jun-13 15:46N 49°46' W 003°50'413.9
2018-Jun-13 15:30N 49°47' W 003°45'914.4
2018-Jun-13 14:52N 49°50' W 003°31'615.3
2018-Jun-13 14:30N 49°52' W 003°23'815.8
2018-Jun-13 14:01N 49°55' W 003°12'816.5
2018-Jun-13 13:30N 49°58' W 002°60'917.2
2018-Jun-13 12:58N 50°01' W 002°46'817.5
2018-Jun-13 12:30N 50°04' W 002°34'1117.6
2018-Jun-13 11:51N 50°06' W 002°17'917.1
2018-Jun-13 11:20N 50°08' W 002°03'716.3
2018-Jun-13 10:53N 50°11' W 001°52'615.5
2018-Jun-13 10:31N 50°13' W 001°44'714.4
2018-Jun-13 10:00N 50°14' W 001°33'713.7
2018-Jun-13 09:30N 50°16' W 001°23'713.2
2018-Jun-13 09:00N 50°18' W 001°13'612.3
2018-Jun-13 08:30N 50°19' W 001°03'611.8
2018-Jun-13 08:00N 50°21' W 000°54'611.6
2018-Jun-13 07:30N 50°22' W 000°46'612.0
2018-Jun-13 07:00N 50°24' W 000°37'612.5
2018-Jun-13 06:30N 50°25' W 000°27'713.4
2018-Jun-13 06:00N 50°27' W 000°17'814.3
2018-Jun-13 05:25N 50°30' W 000°05'715.0
2018-Jun-13 04:57N 50°32' E 000°06'715.7
2018-Jun-13 04:30N 50°34' E 000°17'816.1
2018-Jun-13 04:00N 50°36' E 000°29'816.2
2018-Jun-13 03:30N 50°40' E 000°40'816.3
2018-Jun-13 03:00N 50°45' E 000°50'815.6
2018-Jun-13 02:30N 50°49' E 001°00'815.2
2018-Jun-13 02:00N 50°54' E 001°09'714.6
2018-Jun-13 01:30N 50°59' E 001°18'713.6
2018-Jun-13 01:00N 51°03' E 001°26'612.8
2018-Jun-13 00:30N 51°08' E 001°34'612.2
2018-Jun-13 00:00N 51°12' E 001°41'612.2
2018-Jun-12 23:30N 51°16' E 001°47'713.3
2018-Jun-12 23:00N 51°23' E 001°51'713.8
2018-Jun-12 22:30N 51°29' E 001°57'714.7
2018-Jun-12 22:00N 51°34' E 002°05'815.5
2018-Jun-12 21:30N 51°39' E 002°14'816.0
2018-Jun-12 20:58N 51°46' E 002°23'2816.0
2018-Jun-12 19:12N 52°03' E 002°59'715.2
2018-Jun-12 18:42N 52°03' E 003°12'315.2
2018-Jun-12 18:30N 52°03' E 003°17'815.1
2018-Jun-12 18:00N 52°03' E 003°29'715.1
2018-Jun-12 17:30N 52°04' E 003°41'714.9
2018-Jun-12 17:00N 52°06' E 003°53'714.2
2018-Jun-12 16:30N 52°08' E 004°04'713.3
2018-Jun-12 16:01N 52°13' E 004°11'1 2.0
2018-Jun-12 15:31N 52°14' E 004°12'0 0.3
2018-Jun-12 15:01N 52°14' E 004°12'0 0.4
2018-Jun-12 14:31N 52°14' E 004°12'0 0.6
2018-Jun-12 14:01N 52°14' E 004°11'0 0.7
2018-Jun-12 13:31N 52°13' E 004°11'1 1.9
2018-Jun-12 13:01N 52°14' E 004°12'5 9.7
2018-Jun-12 12:30N 52°19' E 004°14'612.2
2018-Jun-12 12:01N 52°25' E 004°14'713.1
2018-Jun-12 11:31N 52°30' E 004°08'714.9
2018-Jun-12 11:00N 52°37' E 004°04'38812.2
2018-Jun-11 03:22N 57°48' E 010°51'514.2
2018-Jun-11 03:00N 57°44' E 010°57'714.6
2018-Jun-11 02:30N 57°39' E 011°06'714.7
2018-Jun-11 02:00N 57°33' E 011°16'714.8
2018-Jun-11 01:31N 57°28' E 011°26'714.9
2018-Jun-11 01:00N 57°21' E 011°31'11313.4
2018-Jun-10 16:37N 55°31' E 010°52'315.1
2018-Jun-10 16:26N 55°28' E 010°55'914.8
2018-Jun-10 15:51N 55°21' E 011°02'514.8
2018-Jun-10 15:30N 55°16' E 011°05'713.4
2018-Jun-10 15:01N 55°09' E 011°03'1413.8
2018-Jun-10 14:00N 54°56' E 010°56'713.2
2018-Jun-10 13:30N 54°50' E 010°52'612.3
2018-Jun-10 13:00N 54°44' E 010°53'611.3
2018-Jun-10 12:30N 54°40' E 010°59'713.2
2018-Jun-10 12:00N 54°36' E 011°09'713.8
2018-Jun-10 11:30N 54°33' E 011°20'714.8
2018-Jun-10 11:00N 54°30' E 011°32'714.8
2018-Jun-10 10:30N 54°27' E 011°43'714.8
2018-Jun-10 10:00N 54°26' E 011°56'714.8
2018-Jun-10 09:30N 54°27' E 012°09'612.4
2018-Jun-10 09:00N 54°32' E 012°13'713.4
2018-Jun-10 08:31N 54°38' E 012°18'815.2
2018-Jun-10 08:01N 54°42' E 012°29'715.0
2018-Jun-10 07:30N 54°46' E 012°40'714.5
2018-Jun-10 07:01N 54°49' E 012°52'715.0
2018-Jun-10 06:31N 54°52' E 013°04'815.3
2018-Jun-10 06:00N 54°54' E 013°17'815.2
2018-Jun-10 05:31N 54°57' E 013°29'815.0
2018-Jun-10 05:00N 54°59' E 013°41'714.9
2018-Jun-10 04:30N 55°02' E 013°54'714.7
2018-Jun-10 04:00N 55°06' E 014°05'714.8
2018-Jun-10 03:30N 55°12' E 014°12'815.5
2018-Jun-10 03:00N 55°18' E 014°21'815.6
2018-Jun-10 02:30N 55°24' E 014°30'815.4
2018-Jun-10 02:00N 55°28' E 014°40'815.3
2018-Jun-10 01:31N 55°32' E 014°52'815.2
2018-Jun-10 01:01N 55°36' E 015°04'815.0
2018-Jun-10 00:31N 55°40' E 015°15'815.2
2018-Jun-10 00:00N 55°44' E 015°27'815.3
2018-Jun-09 23:31N 55°47' E 015°39'815.2
2018-Jun-09 23:00N 55°51' E 015°50'815.2
2018-Jun-09 22:31N 55°55' E 016°02'815.2
2018-Jun-09 22:00N 55°59' E 016°14'815.1
2018-Jun-09 21:30N 56°03' E 016°25'715.0
2018-Jun-09 21:01N 56°06' E 016°37'714.9
2018-Jun-09 20:30N 56°10' E 016°48'714.8
2018-Jun-09 20:00N 56°15' E 016°59'814.9
2018-Jun-09 19:29N 56°19' E 017°10'814.7
2018-Jun-09 18:58N 56°24' E 017°21'714.7
2018-Jun-09 18:30N 56°28' E 017°31'714.8
2018-Jun-09 18:01N 56°32' E 017°42'715.0
2018-Jun-09 17:31N 56°36' E 017°53'815.0
2018-Jun-09 17:00N 56°41' E 018°04'714.9
2018-Jun-09 16:31N 56°45' E 018°15'1015.0
2018-Jun-09 15:51N 56°52' E 018°29'1315.1
2018-Jun-09 15:00N 57°02' E 018°42'815.1
2018-Jun-09 14:28N 57°09' E 018°51'715.1
2018-Jun-09 14:00N 57°14' E 018°59'815.1
2018-Jun-09 13:30N 57°21' E 019°07'715.0
2018-Jun-09 13:00N 57°27' E 019°15'1414.7
2018-Jun-09 12:04N 57°38' E 019°30'1314.8
2018-Jun-09 11:11N 57°48' E 019°45'315.1
2018-Jun-09 11:00N 57°51' E 019°47'815.0
2018-Jun-09 10:30N 57°57' E 019°56'815.1
2018-Jun-09 09:59N 58°03' E 020°04'815.1
2018-Jun-09 09:30N 58°09' E 020°13'6315.2
2018-Jun-09 05:23N 58°60' E 021°23'615.4
2018-Jun-09 05:00N 59°05' E 021°29'815.3
2018-Jun-09 04:30N 59°10' E 021°40'815.2
2018-Jun-09 04:00N 59°15' E 021°51'715.1
2018-Jun-09 03:30N 59°19' E 022°03'815.2
2018-Jun-09 03:00N 59°24' E 022°15'815.2
2018-Jun-09 02:30N 59°29' E 022°27'714.8
2018-Jun-09 02:00N 59°32' E 022°39'714.9
2018-Jun-09 01:30N 59°34' E 022°54'715.0
2018-Jun-09 01:00N 59°36' E 023°08'715.0
2018-Jun-09 00:30N 59°38' E 023°22'715.0
2018-Jun-09 00:00N 59°40' E 023°36'815.1
2018-Jun-08 23:30N 59°42' E 023°51'815.1
2018-Jun-08 23:00N 59°45' E 024°05'815.0
2018-Jun-08 22:30N 59°46' E 024°19'714.9
2018-Jun-08 22:00N 59°48' E 024°34'714.9
2018-Jun-08 21:30N 59°49' E 024°48'714.5
2018-Jun-08 21:00N 59°51' E 025°02'714.3
2018-Jun-08 20:30N 59°53' E 025°16'714.3
2018-Jun-08 20:00N 59°54' E 025°30'714.2
2018-Jun-08 19:30N 59°55' E 025°44'814.2
2018-Jun-08 18:56N 59°57' E 026°00'714.4
2018-Jun-08 18:28N 59°59' E 026°13'714.6
2018-Jun-08 17:59N 60°00' E 026°27'714.4
2018-Jun-08 17:30N 60°01' E 026°40'914.5
2018-Jun-08 16:54N 59°60' E 026°58'513.6
2018-Jun-08 16:30N 60°01' E 027°08'714.5
2018-Jun-08 16:00N 60°04' E 027°21'815.3
2018-Jun-08 15:27N 60°09' E 027°35'612.9
2018-Jun-08 14:59N 60°12' E 027°46'714.1
2018-Jun-08 14:29N 60°10' E 027°60'714.2
2018-Jun-08 14:00N 60°08' E 028°13'714.1
2018-Jun-08 13:29N 60°04' E 028°26'714.2
2018-Jun-08 12:59N 60°03' E 028°40'816.0
2018-Jun-08 12:29N 60°02' E 028°56'2511.5
2018-Jun-08 10:21N 59°59' E 029°44'411.4
2018-Jun-08 09:59N 59°57' E 029°52'811.6
2018-Jun-08 09:20N 59°54' E 030°06'1 2.3
2018-Jun-08 08:59N 59°54' E 030°07'3 5.6
2018-Jun-08 08:31N 59°53' E 030°12'0 0.1
2018-Jun-08 04:41N 59°54' E 030°13'0 0.0
2018-Jun-08 04:29N 59°54' E 030°13'0 0.0
2018-Jun-08 02:06N 59°54' E 030°13'0 0.0
2018-Jun-08 01:53N 59°54' E 030°13'0 0.0
2018-Jun-07 23:47N 59°54' E 030°13'0 0.0
2018-Jun-07 23:17N 59°54' E 030°13'0 0.0
2018-Jun-07 22:50N 59°54' E 030°13'0 0.0
2018-Jun-07 21:34N 59°54' E 030°13'0 0.0
2018-Jun-07 21:17N 59°54' E 030°13'0 0.0
2018-Jun-07 20:56N 59°54' E 030°13'  
Track history (hours):
 
Tides and Currents Weather Stations Pressure Air Temp Water Temp Dewpoint Dewpoint Depression Visibility Wind Speed Wind Dir Waves Ship Positions

Ditlev Reefer

Last reported at 2018-Jun-17 15:34 UTC. Time now 2018-Jun-22 15:00 UTC.
Position N 36°42' W 029°57'.

Length 164 m; draft 9.1 m.

Type: Ship. MMSI: 311062400.

Date/timePositionNaut miles runAvg speedWind from/ knotsBaromVisibWave heightAir tempDewpointWater temp
2018-Jun-17 15:34N 36°42' W 029°57'1414.8
2018-Jun-17 14:38N 36°49' W 029°43'2515.1
2018-Jun-17 12:57N 37°01' W 029°14'815.2
2018-Jun-17 12:27N 37°04' W 029°06'714.9
2018-Jun-17 11:59N 37°07' W 028°58'715.2
2018-Jun-17 11:30N 37°10' W 028°50'815.2
2018-Jun-17 11:00N 37°14' W 028°41'815.3
2018-Jun-17 10:30N 37°17' W 028°32'715.0
2018-Jun-17 10:00N 37°20' W 028°24'815.9
2018-Jun-17 09:30N 37°24' W 028°15'815.5
2018-Jun-17 09:00N 37°28' W 028°06'714.8
2018-Jun-17 08:30N 37°31' W 027°58'815.4
2018-Jun-17 08:00N 37°34' W 027°49'815.2
2018-Jun-17 07:31N 37°38' W 027°41'815.2
2018-Jun-17 07:00N 37°42' W 027°33'815.6
2018-Jun-17 06:30N 37°44' W 027°23'816.2
2018-Jun-17 06:00N 37°48' W 027°14'815.3
2018-Jun-17 05:30N 37°51' W 027°05'714.8
2018-Jun-17 05:00N 37°54' W 026°57'815.4
2018-Jun-17 04:30N 37°58' W 026°48'715.0
2018-Jun-17 04:00N 38°01' W 026°40'815.1
2018-Jun-17 03:30N 38°04' W 026°31'815.2
2018-Jun-17 03:00N 38°09' W 026°23'714.7
2018-Jun-17 02:30N 38°13' W 026°16'715.0
2018-Jun-17 02:00N 38°18' W 026°08'815.1
2018-Jun-17 01:30N 38°22' W 026°00'815.6
2018-Jun-17 01:01N 38°27' W 025°52'815.5
2018-Jun-17 00:30N 38°31' W 025°44'715.0
2018-Jun-17 00:00N 38°36' W 025°36'714.7
2018-Jun-16 23:31N 38°40' W 025°29'714.6
2018-Jun-16 23:00N 38°44' W 025°21'815.3
2018-Jun-16 22:30N 38°49' W 025°13'  
2018-Jun-13 20:45N 49°17' W 005°25'715.3
2018-Jun-13 20:17N 49°21' W 005°16'415.2
2018-Jun-13 20:00N 49°24' W 005°11'1114.5
2018-Jun-13 19:16N 49°30' W 004°57'913.9
2018-Jun-13 18:36N 49°33' W 004°43'213.6
2018-Jun-13 18:28N 49°33' W 004°41'3513.1
2018-Jun-13 15:46N 49°46' W 003°50'413.9
2018-Jun-13 15:30N 49°47' W 003°45'914.4
2018-Jun-13 14:52N 49°50' W 003°31'615.3
2018-Jun-13 14:30N 49°52' W 003°23'815.8
2018-Jun-13 14:01N 49°55' W 003°12'816.5
2018-Jun-13 13:30N 49°58' W 002°60'917.2
2018-Jun-13 12:58N 50°01' W 002°46'817.5
2018-Jun-13 12:30N 50°04' W 002°34'1117.6
2018-Jun-13 11:51N 50°06' W 002°17'917.1
2018-Jun-13 11:20N 50°08' W 002°03'716.3
2018-Jun-13 10:53N 50°11' W 001°52'615.5
2018-Jun-13 10:31N 50°13' W 001°44'714.4
2018-Jun-13 10:00N 50°14' W 001°33'713.7
2018-Jun-13 09:30N 50°16' W 001°23'713.2
2018-Jun-13 09:00N 50°18' W 001°13'612.3
2018-Jun-13 08:30N 50°19' W 001°03'611.8
2018-Jun-13 08:00N 50°21' W 000°54'611.6
2018-Jun-13 07:30N 50°22' W 000°46'612.0
2018-Jun-13 07:00N 50°24' W 000°37'612.5
2018-Jun-13 06:30N 50°25' W 000°27'713.4
2018-Jun-13 06:00N 50°27' W 000°17'814.3
2018-Jun-13 05:25N 50°30' W 000°05'715.0
2018-Jun-13 04:57N 50°32' E 000°06'715.7
2018-Jun-13 04:30N 50°34' E 000°17'816.1
2018-Jun-13 04:00N 50°36' E 000°29'816.2
2018-Jun-13 03:30N 50°40' E 000°40'816.3
2018-Jun-13 03:00N 50°45' E 000°50'815.6
2018-Jun-13 02:30N 50°49' E 001°00'815.2
2018-Jun-13 02:00N 50°54' E 001°09'714.6
2018-Jun-13 01:30N 50°59' E 001°18'713.6
2018-Jun-13 01:00N 51°03' E 001°26'612.8
2018-Jun-13 00:30N 51°08' E 001°34'612.2
2018-Jun-13 00:00N 51°12' E 001°41'612.2
2018-Jun-12 23:30N 51°16' E 001°47'713.3
2018-Jun-12 23:00N 51°23' E 001°51'713.8
2018-Jun-12 22:30N 51°29' E 001°57'714.7
2018-Jun-12 22:00N 51°34' E 002°05'815.5
2018-Jun-12 21:30N 51°39' E 002°14'816.0
2018-Jun-12 20:58N 51°46' E 002°23'2816.0
2018-Jun-12 19:12N 52°03' E 002°59'715.2
2018-Jun-12 18:42N 52°03' E 003°12'315.2
2018-Jun-12 18:30N 52°03' E 003°17'815.1
2018-Jun-12 18:00N 52°03' E 003°29'715.1
2018-Jun-12 17:30N 52°04' E 003°41'714.9
2018-Jun-12 17:00N 52°06' E 003°53'714.2
2018-Jun-12 16:30N 52°08' E 004°04'713.3
2018-Jun-12 16:01N 52°13' E 004°11'1 2.0
2018-Jun-12 15:31N 52°14' E 004°12'0 0.3
2018-Jun-12 15:01N 52°14' E 004°12'0 0.4
2018-Jun-12 14:31N 52°14' E 004°12'0 0.6
2018-Jun-12 14:01N 52°14' E 004°11'0 0.7
2018-Jun-12 13:31N 52°13' E 004°11'1 1.9
2018-Jun-12 13:01N 52°14' E 004°12'5 9.7
2018-Jun-12 12:30N 52°19' E 004°14'612.2
2018-Jun-12 12:01N 52°25' E 004°14'713.1
2018-Jun-12 11:31N 52°30' E 004°08'714.9
2018-Jun-12 11:00N 52°37' E 004°04'38812.2
2018-Jun-11 03:22N 57°48' E 010°51'514.2
2018-Jun-11 03:00N 57°44' E 010°57'714.6
2018-Jun-11 02:30N 57°39' E 011°06'714.7
2018-Jun-11 02:00N 57°33' E 011°16'714.8
2018-Jun-11 01:31N 57°28' E 011°26'714.9
2018-Jun-11 01:00N 57°21' E 011°31'11313.4
2018-Jun-10 16:37N 55°31' E 010°52'315.1
2018-Jun-10 16:26N 55°28' E 010°55'914.8
2018-Jun-10 15:51N 55°21' E 011°02'514.8
2018-Jun-10 15:30N 55°16' E 011°05'713.4
2018-Jun-10 15:01N 55°09' E 011°03'1413.8
2018-Jun-10 14:00N 54°56' E 010°56'713.2
2018-Jun-10 13:30N 54°50' E 010°52'612.3
2018-Jun-10 13:00N 54°44' E 010°53'611.3
2018-Jun-10 12:30N 54°40' E 010°59'713.2
2018-Jun-10 12:00N 54°36' E 011°09'713.8
2018-Jun-10 11:30N 54°33' E 011°20'714.8
2018-Jun-10 11:00N 54°30' E 011°32'714.8
2018-Jun-10 10:30N 54°27' E 011°43'714.8
2018-Jun-10 10:00N 54°26' E 011°56'714.8
2018-Jun-10 09:30N 54°27' E 012°09'612.4
2018-Jun-10 09:00N 54°32' E 012°13'713.4
2018-Jun-10 08:31N 54°38' E 012°18'815.2
2018-Jun-10 08:01N 54°42' E 012°29'715.0
2018-Jun-10 07:30N 54°46' E 012°40'714.5
2018-Jun-10 07:01N 54°49' E 012°52'715.0
2018-Jun-10 06:31N 54°52' E 013°04'815.3
2018-Jun-10 06:00N 54°54' E 013°17'815.2
2018-Jun-10 05:31N 54°57' E 013°29'815.0
2018-Jun-10 05:00N 54°59' E 013°41'714.9
2018-Jun-10 04:30N 55°02' E 013°54'714.7
2018-Jun-10 04:00N 55°06' E 014°05'714.8
2018-Jun-10 03:30N 55°12' E 014°12'815.5
2018-Jun-10 03:00N 55°18' E 014°21'815.6
2018-Jun-10 02:30N 55°24' E 014°30'815.4
2018-Jun-10 02:00N 55°28' E 014°40'815.3
2018-Jun-10 01:31N 55°32' E 014°52'815.2
2018-Jun-10 01:01N 55°36' E 015°04'815.0
2018-Jun-10 00:31N 55°40' E 015°15'815.2
2018-Jun-10 00:00N 55°44' E 015°27'815.3
2018-Jun-09 23:31N 55°47' E 015°39'815.2
2018-Jun-09 23:00N 55°51' E 015°50'815.2
2018-Jun-09 22:31N 55°55' E 016°02'815.2
2018-Jun-09 22:00N 55°59' E 016°14'815.1
2018-Jun-09 21:30N 56°03' E 016°25'715.0
2018-Jun-09 21:01N 56°06' E 016°37'714.9
2018-Jun-09 20:30N 56°10' E 016°48'714.8
2018-Jun-09 20:00N 56°15' E 016°59'814.9
2018-Jun-09 19:29N 56°19' E 017°10'814.7
2018-Jun-09 18:58N 56°24' E 017°21'714.7
2018-Jun-09 18:30N 56°28' E 017°31'714.8
2018-Jun-09 18:01N 56°32' E 017°42'715.0
2018-Jun-09 17:31N 56°36' E 017°53'815.0
2018-Jun-09 17:00N 56°41' E 018°04'714.9
2018-Jun-09 16:31N 56°45' E 018°15'1015.0
2018-Jun-09 15:51N 56°52' E 018°29'1315.1
2018-Jun-09 15:00N 57°02' E 018°42'815.1
2018-Jun-09 14:28N 57°09' E 018°51'715.1
2018-Jun-09 14:00N 57°14' E 018°59'815.1
2018-Jun-09 13:30N 57°21' E 019°07'715.0
2018-Jun-09 13:00N 57°27' E 019°15'1414.7
2018-Jun-09 12:04N 57°38' E 019°30'1314.8
2018-Jun-09 11:11N 57°48' E 019°45'315.1
2018-Jun-09 11:00N 57°51' E 019°47'815.0
2018-Jun-09 10:30N 57°57' E 019°56'815.1
2018-Jun-09 09:59N 58°03' E 020°04'815.1
2018-Jun-09 09:30N 58°09' E 020°13'6315.2
2018-Jun-09 05:23N 58°60' E 021°23'615.4
2018-Jun-09 05:00N 59°05' E 021°29'815.3
2018-Jun-09 04:30N 59°10' E 021°40'815.2
2018-Jun-09 04:00N 59°15' E 021°51'715.1
2018-Jun-09 03:30N 59°19' E 022°03'815.2
2018-Jun-09 03:00N 59°24' E 022°15'815.2
2018-Jun-09 02:30N 59°29' E 022°27'714.8
2018-Jun-09 02:00N 59°32' E 022°39'714.9
2018-Jun-09 01:30N 59°34' E 022°54'715.0
2018-Jun-09 01:00N 59°36' E 023°08'715.0
2018-Jun-09 00:30N 59°38' E 023°22'715.0
2018-Jun-09 00:00N 59°40' E 023°36'815.1
2018-Jun-08 23:30N 59°42' E 023°51'815.1
2018-Jun-08 23:00N 59°45' E 024°05'815.0
2018-Jun-08 22:30N 59°46' E 024°19'714.9
2018-Jun-08 22:00N 59°48' E 024°34'714.9
2018-Jun-08 21:30N 59°49' E 024°48'714.5
2018-Jun-08 21:00N 59°51' E 025°02'714.3
2018-Jun-08 20:30N 59°53' E 025°16'714.3
2018-Jun-08 20:00N 59°54' E 025°30'714.2
2018-Jun-08 19:30N 59°55' E 025°44'814.2
2018-Jun-08 18:56N 59°57' E 026°00'714.4
2018-Jun-08 18:28N 59°59' E 026°13'714.6
2018-Jun-08 17:59N 60°00' E 026°27'714.4
2018-Jun-08 17:30N 60°01' E 026°40'914.5
2018-Jun-08 16:54N 59°60' E 026°58'513.6
2018-Jun-08 16:30N 60°01' E 027°08'714.5
2018-Jun-08 16:00N 60°04' E 027°21'815.3
2018-Jun-08 15:27N 60°09' E 027°35'612.9
2018-Jun-08 14:59N 60°12' E 027°46'714.1
2018-Jun-08 14:29N 60°10' E 027°60'714.2
2018-Jun-08 14:00N 60°08' E 028°13'714.1
2018-Jun-08 13:29N 60°04' E 028°26'714.2
2018-Jun-08 12:59N 60°03' E 028°40'816.0
2018-Jun-08 12:29N 60°02' E 028°56'2511.5
2018-Jun-08 10:21N 59°59' E 029°44'411.4
2018-Jun-08 09:59N 59°57' E 029°52'811.6
2018-Jun-08 09:20N 59°54' E 030°06'1 2.3
2018-Jun-08 08:59N 59°54' E 030°07'3 5.6
2018-Jun-08 08:31N 59°53' E 030°12'0 0.1
2018-Jun-08 04:41N 59°54' E 030°13'0 0.0
2018-Jun-08 04:29N 59°54' E 030°13'0 0.0
2018-Jun-08 02:06N 59°54' E 030°13'0 0.0
2018-Jun-08 01:53N 59°54' E 030°13'0 0.0
2018-Jun-07 23:47N 59°54' E 030°13'0 0.0
2018-Jun-07 23:17N 59°54' E 030°13'0 0.0
2018-Jun-07 22:50N 59°54' E 030°13'0 0.0
2018-Jun-07 21:34N 59°54' E 030°13'0 0.0
2018-Jun-07 21:17N 59°54' E 030°13'0 0.0
2018-Jun-07 20:56N 59°54' E 030°13'  

Dump ship's entire track history